createdAt,value
2022-11-25T00:01:48.062Z,35.95
2022-11-25T00:04:53.409Z,34.00
2022-11-25T00:07:59.171Z,29.55
2022-11-25T00:11:06.542Z,30.77
2022-11-25T00:14:15.081Z,35.42
2022-11-25T00:17:20.457Z,46.28
2022-11-25T00:20:25.830Z,38.40
2022-11-25T00:23:33.410Z,35.17
2022-11-25T00:26:39.128Z,46.33
2022-11-25T00:29:44.593Z,48.50
2022-11-25T00:32:49.830Z,42.63
2022-11-25T00:35:55.157Z,39.17
2022-11-25T00:39:03.340Z,40.83
2022-11-25T00:42:28.929Z,35.45
2022-11-25T00:45:34.276Z,39.47
2022-11-25T00:48:39.887Z,38.20
2022-11-25T00:51:45.370Z,35.78
2022-11-25T00:54:52.289Z,34.53
2022-11-25T00:57:57.725Z,35.90
2022-11-25T01:01:05.180Z,38.53
2022-11-25T01:04:10.893Z,37.88
2022-11-25T01:07:18.291Z,44.03
2022-11-25T01:10:23.825Z,35.53
2022-11-25T01:13:29.571Z,32.50
2022-11-25T01:16:35.387Z,33.50
2022-11-25T01:19:42.244Z,37.47
2022-11-25T01:22:48.021Z,46.03
2022-11-25T01:25:53.172Z,37.80
2022-11-25T01:29:01.169Z,37.00
2022-11-25T01:32:06.503Z,45.75
2022-11-25T01:35:12.543Z,35.13
2022-11-25T01:38:17.936Z,34.95
2022-11-25T01:41:26.740Z,38.85
2022-11-25T01:44:33.633Z,37.20
2022-11-25T01:47:39.793Z,30.92
2022-11-25T01:50:47.548Z,37.90
2022-11-25T01:53:57.918Z,34.55
2022-11-25T01:57:10.136Z,32.42
2022-11-25T02:00:18.139Z,39.05
2022-11-25T02:03:32.246Z,37.90
2022-11-25T02:06:48.052Z,35.00
2022-11-25T02:09:55.981Z,33.38
2022-11-25T02:13:01.650Z,34.30
2022-11-25T02:16:07.090Z,30.77
2022-11-25T02:19:28.014Z,28.48
2022-11-25T02:22:51.413Z,32.78
2022-11-25T02:25:57.296Z,33.47
2022-11-25T02:29:02.805Z,34.42
2022-11-25T02:32:08.982Z,35.72
2022-11-25T02:35:33.489Z,36.08
2022-11-25T02:38:48.218Z,33.15
2022-11-25T02:41:58.859Z,37.70
2022-11-25T02:45:05.564Z,30.92
2022-11-25T02:48:10.981Z,30.52
2022-11-25T02:51:20.130Z,31.52
2022-11-25T02:54:25.442Z,29.58
2022-11-25T02:57:31.190Z,28.25
2022-11-25T03:00:36.789Z,31.73
2022-11-25T03:03:42.789Z,41.30
2022-11-25T03:06:48.053Z,36.47
2022-11-25T03:09:53.346Z,34.38
2022-11-25T03:12:58.825Z,35.33
2022-11-25T03:16:04.895Z,45.53
2022-11-25T03:19:10.901Z,46.85
2022-11-25T03:22:16.516Z,41.05
2022-11-25T03:25:22.475Z,32.28
2022-11-25T03:28:29.128Z,33.55
2022-11-25T03:31:36.562Z,35.53
2022-11-25T03:34:42.483Z,28.10
2022-11-25T03:37:48.319Z,32.13
2022-11-25T03:40:53.970Z,36.78
2022-11-25T03:43:59.975Z,35.85
2022-11-25T03:47:05.594Z,36.95
2022-11-25T03:50:13.730Z,36.67
2022-11-25T03:53:19.471Z,35.22
2022-11-25T03:56:25.576Z,43.10
2022-11-25T03:59:30.998Z,36.70
2022-11-25T04:02:36.525Z,34.22
2022-11-25T04:05:42.385Z,33.15
2022-11-25T04:08:48.259Z,38.53
2022-11-25T04:12:12.073Z,36.95
2022-11-25T04:15:28.630Z,33.67
2022-11-25T04:18:36.479Z,40.20
2022-11-25T04:21:41.834Z,36.97
2022-11-25T04:24:48.680Z,37.53
2022-11-25T04:27:59.888Z,42.03
2022-11-25T04:31:11.978Z,37.17
2022-11-25T04:34:21.175Z,40.55
2022-11-25T04:37:29.421Z,34.67
2022-11-25T04:40:35.631Z,43.05
2022-11-25T04:43:56.372Z,35.20
2022-11-25T04:47:01.797Z,34.65
2022-11-25T04:50:13.128Z,36.13
2022-11-25T04:53:28.378Z,38.90
2022-11-25T04:56:33.869Z,36.97
2022-11-25T04:59:42.671Z,39.05
2022-11-25T05:02:50.945Z,37.70
2022-11-25T05:05:58.792Z,37.08
2022-11-25T05:09:05.046Z,40.88
2022-11-25T05:12:25.984Z,44.83
2022-11-25T05:15:31.765Z,41.92
2022-11-25T05:18:37.367Z,39.35
2022-11-25T05:21:42.842Z,41.15
2022-11-25T05:24:49.323Z,46.97
2022-11-25T05:27:56.152Z,49.05
2022-11-25T05:31:01.578Z,48.58
2022-11-25T05:34:08.327Z,50.92
2022-11-25T05:37:17.729Z,41.58
2022-11-25T05:40:35.167Z,44.58
2022-11-25T05:43:47.690Z,49.97
2022-11-25T05:46:54.367Z,47.33
2022-11-25T05:50:00.027Z,46.45
2022-11-25T05:53:06.230Z,44.28
2022-11-25T05:56:13.813Z,46.40
2022-11-25T05:59:42.018Z,49.50
2022-11-25T06:02:53.701Z,41.45
2022-11-25T06:06:03.072Z,34.85
2022-11-25T06:09:10.069Z,44.42
2022-11-25T06:12:16.789Z,45.42
2022-11-25T06:15:27.171Z,42.60
2022-11-25T06:18:37.859Z,42.22
2022-11-25T06:21:45.601Z,42.63
2022-11-25T06:24:58.898Z,51.05
2022-11-25T06:28:13.106Z,49.05
2022-11-25T06:31:25.593Z,39.95
2022-11-25T06:34:50.968Z,48.42
2022-11-25T06:38:17.050Z,43.17
2022-11-25T06:41:23.339Z,39.55
2022-11-25T06:44:29.053Z,40.83
2022-11-25T06:47:34.435Z,44.78
2022-11-25T06:50:40.341Z,40.65
2022-11-25T06:53:46.950Z,51.28
2022-11-25T06:56:54.083Z,43.35
2022-11-25T07:00:00.098Z,41.47
2022-11-25T07:03:05.761Z,47.03
2022-11-25T07:06:16.269Z,48.08
2022-11-25T07:09:22.948Z,62.95
2022-11-25T07:12:28.283Z,49.28
2022-11-25T07:15:35.160Z,57.40
2022-11-25T07:18:42.148Z,69.18
2022-11-25T07:21:47.964Z,50.38
2022-11-25T07:24:53.337Z,59.30
2022-11-25T07:27:58.860Z,47.35
2022-11-25T07:31:27.520Z,48.60
2022-11-25T07:34:34.802Z,43.20
2022-11-25T07:37:40.475Z,35.78
2022-11-25T07:40:46.381Z,48.75
2022-11-25T07:43:54.475Z,42.70
2022-11-25T07:47:02.865Z,63.83
2022-11-25T07:50:09.292Z,72.93
2022-11-25T07:53:14.634Z,79.60
2022-11-25T07:56:21.762Z,49.28
2022-11-25T07:59:27.971Z,49.00
2022-11-25T08:02:34.421Z,47.55
2022-11-25T08:05:40.168Z,41.70
2022-11-25T08:08:46.633Z,45.75
2022-11-25T08:11:53.123Z,46.70
2022-11-25T08:14:59.028Z,57.15
2022-11-25T08:18:04.572Z,46.83
2022-11-25T08:21:13.325Z,37.58
2022-11-25T08:24:21.330Z,36.97
2022-11-25T08:27:26.953Z,35.38
2022-11-25T08:30:32.626Z,39.80
2022-11-25T08:33:38.513Z,71.78
2022-11-25T08:36:48.202Z,43.85
2022-11-25T08:39:55.473Z,43.38
2022-11-25T08:43:02.671Z,39.35
2022-11-25T08:46:20.925Z,32.97
2022-11-25T08:49:34.989Z,36.08
2022-11-25T08:52:44.805Z,30.17
2022-11-25T08:55:51.022Z,28.25
2022-11-25T08:58:57.930Z,27.30
2022-11-25T09:02:03.612Z,33.97
2022-11-25T09:05:13.721Z,26.63
2022-11-25T09:08:21.356Z,30.77
2022-11-25T09:11:27.529Z,28.02
2022-11-25T09:14:33.090Z,27.63
2022-11-25T09:17:38.666Z,34.25
2022-11-25T09:20:45.181Z,31.73
2022-11-25T09:23:52.802Z,30.63
2022-11-25T09:26:58.160Z,28.60
2022-11-25T09:30:04.236Z,26.90
2022-11-25T09:33:09.929Z,27.60
2022-11-25T09:36:18.640Z,28.52
2022-11-25T09:39:28.551Z,30.88
2022-11-25T09:43:21.019Z,34.72
2022-11-25T09:46:51.729Z,28.05
2022-11-25T09:50:06.086Z,29.90
2022-11-25T09:53:33.254Z,27.08
2022-11-25T09:56:45.456Z,36.22
2022-11-25T10:00:11.590Z,32.45
2022-11-25T10:03:36.106Z,31.77
2022-11-25T10:10:01.762Z,34.38
2022-11-25T10:13:22.261Z,32.05
2022-11-25T10:16:36.508Z,32.05
2022-11-25T10:19:57.428Z,28.45
2022-11-25T10:23:16.943Z,27.88
2022-11-25T10:26:27.716Z,21.92
2022-11-25T10:29:38.525Z,21.42
2022-11-25T10:32:50.704Z,24.98
2022-11-25T10:36:06.496Z,22.55
2022-11-25T10:39:20.121Z,19.50
2022-11-25T10:42:28.923Z,20.98
2022-11-25T10:45:45.608Z,17.90
2022-11-25T10:49:15.024Z,19.92
2022-11-25T10:52:24.300Z,11.65
2022-11-25T10:55:33.994Z,15.38
2022-11-25T10:58:41.121Z,14.02
2022-11-25T11:01:47.111Z,10.95
2022-11-25T11:05:00.502Z,12.40
2022-11-25T11:08:12.421Z,14.88
2022-11-25T11:11:23.722Z,14.10
2022-11-25T11:14:30.441Z,16.07
2022-11-25T11:17:37.417Z,16.83
2022-11-25T11:20:48.876Z,20.13
2022-11-25T11:23:57.551Z,17.95
2022-11-25T11:27:08.198Z,16.60
2022-11-25T11:30:27.287Z,16.20
2022-11-25T11:33:59.110Z,16.38
2022-11-25T11:37:38.372Z,13.07
2022-11-25T11:40:52.222Z,19.50
2022-11-25T11:44:18.856Z,15.98
2022-11-25T11:47:45.327Z,17.05
2022-11-25T11:51:18.334Z,20.42
2022-11-25T11:54:44.068Z,19.20
2022-11-25T11:58:01.712Z,21.35
2022-11-25T12:01:25.089Z,19.20
2022-11-25T12:04:54.037Z,20.30
2022-11-25T12:08:34.689Z,18.77
2022-11-25T12:11:46.182Z,24.73
2022-11-25T12:14:57.922Z,20.57
2022-11-25T12:18:29.499Z,18.17
2022-11-25T12:21:53.820Z,17.27
2022-11-25T12:25:09.311Z,17.90
2022-11-25T12:28:35.502Z,22.88
2022-11-25T12:31:56.743Z,26.23
2022-11-25T12:35:11.364Z,21.38
2022-11-25T12:38:27.939Z,23.55
2022-11-25T12:41:43.630Z,24.50
2022-11-25T12:45:07.574Z,26.00
2022-11-25T12:48:17.323Z,21.10
2022-11-25T12:51:46.082Z,32.17
2022-11-25T12:55:07.591Z,29.75
2022-11-25T12:58:54.155Z,20.38
2022-11-25T13:02:05.569Z,18.67
2022-11-25T13:09:28.327Z,27.25
2022-11-25T13:13:07.686Z,17.33
2022-11-25T13:16:15.743Z,21.90
2022-11-25T13:19:24.157Z,22.85
2022-11-25T13:22:30.256Z,20.27
2022-11-25T13:25:38.007Z,23.33
2022-11-25T13:28:43.707Z,25.92
2022-11-25T13:32:25.673Z,22.80
2022-11-25T13:35:34.964Z,21.30
2022-11-25T13:38:49.756Z,20.85
2022-11-25T13:42:25.248Z,21.95
2022-11-25T13:45:43.499Z,19.67
2022-11-25T13:48:49.847Z,19.70
2022-11-25T13:52:17.721Z,21.25
2022-11-25T13:55:32.025Z,21.02
2022-11-25T13:58:37.911Z,25.83
2022-11-25T14:01:46.339Z,30.08
2022-11-25T14:05:11.643Z,30.30
2022-11-25T14:08:27.120Z,31.08
2022-11-25T14:11:47.308Z,31.38
2022-11-25T14:15:25.407Z,33.83
2022-11-25T14:19:28.486Z,31.67
2022-11-25T14:22:58.180Z,39.90
2022-11-25T14:26:41.771Z,35.10
2022-11-25T14:29:44.276Z,36.45
2022-11-25T14:33:11.802Z,37.25
2022-11-25T14:36:40.852Z,46.22
2022-11-25T14:40:01.791Z,35.47
2022-11-25T14:43:15.547Z,38.50
2022-11-25T14:46:23.628Z,42.40
2022-11-25T14:49:55.730Z,38.60
2022-11-25T14:53:12.297Z,50.20
2022-11-25T14:56:26.386Z,69.13
2022-11-25T14:59:32.159Z,73.95
2022-11-25T15:02:41.476Z,66.80
2022-11-25T15:05:57.410Z,51.92
2022-11-25T15:09:21.345Z,60.17
2022-11-25T15:12:32.791Z,55.42
2022-11-25T15:15:38.770Z,50.33
2022-11-25T15:18:54.783Z,39.83
2022-11-25T15:25:28.988Z,46.80
2022-11-25T15:28:36.955Z,39.88
2022-11-25T15:31:42.729Z,34.85
2022-11-25T15:34:49.732Z,36.10
2022-11-25T15:37:55.306Z,38.90
2022-11-25T15:41:01.732Z,36.97
2022-11-25T15:44:07.568Z,36.22
2022-11-25T15:47:29.118Z,36.97
2022-11-25T15:50:35.591Z,38.88
2022-11-25T15:53:47.215Z,32.22
2022-11-25T15:57:16.657Z,41.30
2022-11-25T16:00:23.757Z,37.35
2022-11-25T16:03:31.885Z,34.53
2022-11-25T16:06:37.349Z,39.88
2022-11-25T16:09:51.654Z,40.35
2022-11-25T16:13:21.143Z,46.83
2022-11-25T16:16:30.292Z,45.28
2022-11-25T16:19:46.822Z,39.55
2022-11-25T16:22:52.553Z,49.72
2022-11-25T16:26:04.695Z,46.85
2022-11-25T16:29:31.657Z,53.60
2022-11-25T16:32:37.308Z,47.78
2022-11-25T16:35:43.756Z,45.83
2022-11-25T16:38:54.094Z,55.75
2022-11-25T16:42:04.481Z,51.47
2022-11-25T16:45:20.286Z,51.05
2022-11-25T16:48:25.836Z,49.03
2022-11-25T16:51:31.772Z,54.55
2022-11-25T16:54:39.622Z,38.63
2022-11-25T16:57:45.816Z,46.47
2022-11-25T17:00:57.396Z,41.90
2022-11-25T17:07:32.099Z,44.15
2022-11-25T17:10:42.656Z,39.10
2022-11-25T17:13:52.881Z,35.92
2022-11-25T17:17:05.336Z,39.42
2022-11-25T17:20:15.980Z,41.33
2022-11-25T17:23:22.896Z,43.58
2022-11-25T17:26:34.743Z,42.30
2022-11-25T17:29:45.066Z,48.55
2022-11-25T17:32:58.960Z,40.30
2022-11-25T17:36:04.972Z,39.92
2022-11-25T17:39:12.462Z,42.20
2022-11-25T17:42:23.345Z,46.60
2022-11-25T17:45:29.927Z,39.40
2022-11-25T17:48:36.397Z,46.47
2022-11-25T17:51:43.721Z,35.38
2022-11-25T17:54:49.825Z,47.13
2022-11-25T17:57:56.292Z,41.35
2022-11-25T18:01:02.562Z,44.03
2022-11-25T18:04:21.696Z,49.00
2022-11-25T18:07:27.602Z,50.92
2022-11-25T18:10:33.626Z,50.28
2022-11-25T18:13:42.167Z,54.53
2022-11-25T18:16:48.380Z,44.90
2022-11-25T18:19:55.489Z,40.55
2022-11-25T18:23:02.892Z,52.38
2022-11-25T18:26:12.603Z,50.95
2022-11-25T18:29:25.002Z,47.40
2022-11-25T18:32:30.973Z,45.78
2022-11-25T18:35:37.247Z,48.30
2022-11-25T18:38:53.801Z,49.78
2022-11-25T18:42:01.814Z,39.25
2022-11-25T18:45:15.893Z,39.60
2022-11-25T18:48:26.412Z,43.72
2022-11-25T18:51:32.911Z,42.95
2022-11-25T18:54:38.702Z,49.30
2022-11-25T18:57:48.905Z,43.05
2022-11-25T19:01:04.303Z,45.42
2022-11-25T19:04:17.023Z,47.58
2022-11-25T19:07:22.634Z,45.83
2022-11-25T19:10:32.607Z,38.85
2022-11-25T19:13:38.587Z,46.67
2022-11-25T19:16:45.156Z,47.00
2022-11-25T19:19:51.340Z,42.65
2022-11-25T19:23:01.199Z,39.55
2022-11-25T19:26:32.159Z,41.60
2022-11-25T19:29:42.293Z,35.25
2022-11-25T19:32:52.362Z,39.17
2022-11-25T19:35:59.795Z,38.30
2022-11-25T19:39:15.828Z,35.88
2022-11-25T19:42:23.719Z,40.72
2022-11-25T19:45:31.536Z,40.28
2022-11-25T19:48:39.939Z,43.33
2022-11-25T19:51:47.684Z,47.28
2022-11-25T19:54:54.133Z,87.82
2022-11-25T19:58:00.898Z,85.13
2022-11-25T20:01:07.173Z,69.82
2022-11-25T20:04:21.884Z,54.22
2022-11-25T20:07:28.059Z,46.85
2022-11-25T20:10:33.587Z,44.45
2022-11-25T20:13:40.620Z,36.08
2022-11-25T20:16:46.822Z,33.33
2022-11-25T20:19:57.517Z,37.58
2022-11-25T20:23:16.608Z,34.28
2022-11-25T20:26:34.798Z,33.53
2022-11-25T20:29:40.992Z,34.63
2022-11-25T20:32:47.592Z,28.77
2022-11-25T20:36:14.927Z,33.78
2022-11-25T20:39:21.925Z,39.33
2022-11-25T20:42:28.190Z,34.38
2022-11-25T20:45:34.398Z,28.15
2022-11-25T20:48:40.265Z,39.30
2022-11-25T20:51:46.747Z,33.58
2022-11-25T20:54:53.083Z,35.67
2022-11-25T20:58:00.041Z,44.55
2022-11-25T21:01:07.135Z,37.42
2022-11-25T21:04:13.605Z,32.38
2022-11-25T21:07:19.956Z,40.17
2022-11-25T21:10:29.798Z,37.97
2022-11-25T21:13:36.690Z,40.35
2022-11-25T21:16:43.079Z,36.38
2022-11-25T21:19:49.180Z,38.85
2022-11-25T21:22:58.581Z,31.20
2022-11-25T21:26:17.428Z,30.98
2022-11-25T21:29:23.890Z,32.38
2022-11-25T21:32:29.806Z,31.48
2022-11-25T21:35:38.127Z,29.85
2022-11-25T21:38:45.210Z,30.33
2022-11-25T21:41:51.536Z,27.55
2022-11-25T21:44:57.794Z,30.30
2022-11-25T21:48:03.850Z,35.75
2022-11-25T21:51:22.292Z,29.77
2022-11-25T21:54:28.033Z,28.35
2022-11-25T21:57:33.741Z,33.22
2022-11-25T22:00:39.913Z,32.08
2022-11-25T22:03:46.531Z,26.17
2022-11-25T22:06:52.787Z,32.63
2022-11-25T22:09:58.850Z,25.60
2022-11-25T22:13:06.887Z,32.30
2022-11-25T22:16:17.889Z,36.17
2022-11-25T22:19:27.716Z,33.75
2022-11-25T22:22:34.730Z,38.20
2022-11-25T22:25:40.446Z,32.13
2022-11-25T22:28:50.506Z,30.92
2022-11-25T22:31:56.360Z,34.83
2022-11-25T22:35:02.678Z,29.27
2022-11-25T22:38:18.938Z,30.60
2022-11-25T22:41:24.591Z,34.33
2022-11-25T22:44:43.107Z,27.75
2022-11-25T22:47:49.537Z,26.20
2022-11-25T22:50:55.072Z,27.50
2022-11-25T22:54:00.856Z,23.17
2022-11-25T22:57:06.697Z,19.52
2022-11-25T23:00:21.700Z,26.10
2022-11-25T23:03:30.106Z,28.83
2022-11-25T23:06:36.056Z,30.52
2022-11-25T23:09:43.464Z,21.58
2022-11-25T23:12:49.663Z,22.20
2022-11-25T23:16:00.509Z,19.67
2022-11-25T23:19:09.392Z,24.77
2022-11-25T23:22:15.125Z,21.42
2022-11-25T23:25:23.086Z,21.60
2022-11-25T23:28:28.531Z,17.08
2022-11-25T23:31:38.708Z,21.70
2022-11-25T23:34:45.509Z,21.92
2022-11-25T23:37:57.258Z,21.95
2022-11-25T23:41:03.077Z,19.63
2022-11-25T23:44:24.201Z,19.10
2022-11-25T23:47:29.652Z,19.02
2022-11-25T23:50:35.328Z,19.38
2022-11-25T23:53:41.940Z,20.58
2022-11-25T23:56:48.695Z,22.65
2022-11-25T23:59:55.131Z,20.33
